sensor_id;sensor_type;location;lat;lon;timestamp;temperature;humidity
14210;DHT22;7188;56.070;12.698;2023-03-23T00:01:06;9.20;99.90
14210;DHT22;7188;56.070;12.698;2023-03-23T00:03:32;9.20;99.90
14210;DHT22;7188;56.070;12.698;2023-03-23T00:05:58;9.20;99.90
14210;DHT22;7188;56.070;12.698;2023-03-23T00:08:33;9.20;99.90
14210;DHT22;7188;56.070;12.698;2023-03-23T00:10:59;9.20;99.90
14210;DHT22;7188;56.070;12.698;2023-03-23T00:13:27;9.20;99.90
14210;DHT22;7188;56.070;12.698;2023-03-23T00:15:53;9.20;99.90
14210;DHT22;7188;56.070;12.698;2023-03-23T00:18:19;9.20;99.90
14210;DHT22;7188;56.070;12.698;2023-03-23T00:20:55;9.20;99.90
14210;DHT22;7188;56.070;12.698;2023-03-23T00:23:24;9.20;99.90
14210;DHT22;7188;56.070;12.698;2023-03-23T00:25:52;9.20;99.90
14210;DHT22;7188;56.070;12.698;2023-03-23T00:28:19;9.20;99.90
14210;DHT22;7188;56.070;12.698;2023-03-23T00:30:54;9.20;99.90
14210;DHT22;7188;56.070;12.698;2023-03-23T00:33:22;9.20;99.90
14210;DHT22;7188;56.070;12.698;2023-03-23T00:35:49;9.20;99.90
14210;DHT22;7188;56.070;12.698;2023-03-23T00:38:21;9.30;99.90
14210;DHT22;7188;56.070;12.698;2023-03-23T00:40:47;9.20;99.90
14210;DHT22;7188;56.070;12.698;2023-03-23T00:43:14;9.30;99.90
14210;DHT22;7188;56.070;12.698;2023-03-23T00:45:40;9.30;99.90
14210;DHT22;7188;56.070;12.698;2023-03-23T00:48:24;9.20;99.90
14210;DHT22;7188;56.070;12.698;2023-03-23T00:51:15;9.20;99.90
14210;DHT22;7188;56.070;12.698;2023-03-23T00:53:41;9.20;99.90
14210;DHT22;7188;56.070;12.698;2023-03-23T00:56:08;9.20;99.90
14210;DHT22;7188;56.070;12.698;2023-03-23T00:58:35;9.20;99.90
14210;DHT22;7188;56.070;12.698;2023-03-23T01:01:01;9.20;99.90
14210;DHT22;7188;56.070;12.698;2023-03-23T01:03:27;9.20;99.90
14210;DHT22;7188;56.070;12.698;2023-03-23T01:05:54;9.20;99.90
14210;DHT22;7188;56.070;12.698;2023-03-23T01:08:21;9.30;99.90
14210;DHT22;7188;56.070;12.698;2023-03-23T01:10:48;9.30;99.90
14210;DHT22;7188;56.070;12.698;2023-03-23T01:13:14;9.30;99.90
14210;DHT22;7188;56.070;12.698;2023-03-23T01:15:41;9.30;99.90
14210;DHT22;7188;56.070;12.698;2023-03-23T01:18:07;9.30;99.90
14210;DHT22;7188;56.070;12.698;2023-03-23T01:20:35;9.30;99.90
14210;DHT22;7188;56.070;12.698;2023-03-23T01:23:01;9.30;99.90
14210;DHT22;7188;56.070;12.698;2023-03-23T01:25:31;9.20;99.90
14210;DHT22;7188;56.070;12.698;2023-03-23T01:27:58;9.30;99.90
14210;DHT22;7188;56.070;12.698;2023-03-23T01:30:24;9.30;99.90
14210;DHT22;7188;56.070;12.698;2023-03-23T01:32:51;9.40;99.90
14210;DHT22;7188;56.070;12.698;2023-03-23T01:35:17;9.40;99.90
14210;DHT22;7188;56.070;12.698;2023-03-23T01:37:42;9.50;99.90
14210;DHT22;7188;56.070;12.698;2023-03-23T01:40:08;9.40;99.90
14210;DHT22;7188;56.070;12.698;2023-03-23T01:42:36;9.30;99.90
14210;DHT22;7188;56.070;12.698;2023-03-23T01:45:31;9.30;99.90
14210;DHT22;7188;56.070;12.698;2023-03-23T01:48:17;9.40;99.90
14210;DHT22;7188;56.070;12.698;2023-03-23T01:51:05;9.40;99.90
14210;DHT22;7188;56.070;12.698;2023-03-23T01:54:02;9.40;99.90
14210;DHT22;7188;56.070;12.698;2023-03-23T01:56:39;9.40;99.90
14210;DHT22;7188;56.070;12.698;2023-03-23T01:59:08;9.30;99.90
14210;DHT22;7188;56.070;12.698;2023-03-23T02:01:34;9.30;99.90
14210;DHT22;7188;56.070;12.698;2023-03-23T02:04:03;9.40;99.90
14210;DHT22;7188;56.070;12.698;2023-03-23T02:06:30;9.40;99.90
14210;DHT22;7188;56.070;12.698;2023-03-23T02:08:56;9.30;99.90
14210;DHT22;7188;56.070;12.698;2023-03-23T02:11:22;9.30;99.90
14210;DHT22;7188;56.070;12.698;2023-03-23T02:13:49;9.30;99.90
14210;DHT22;7188;56.070;12.698;2023-03-23T02:30:14;9.30;99.90
14210;DHT22;7188;56.070;12.698;2023-03-23T02:35:18;9.60;99.90
14210;DHT22;7188;56.070;12.698;2023-03-23T02:37:49;9.60;99.90
14210;DHT22;7188;56.070;12.698;2023-03-23T02:40:18;9.50;99.90
14210;DHT22;7188;56.070;12.698;2023-03-23T02:42:49;9.50;99.90
14210;DHT22;7188;56.070;12.698;2023-03-23T02:45:16;9.60;99.90
14210;DHT22;7188;56.070;12.698;2023-03-23T02:47:43;9.50;99.90
14210;DHT22;7188;56.070;12.698;2023-03-23T02:50:13;9.40;99.90
14210;DHT22;7188;56.070;12.698;2023-03-23T02:52:41;9.30;99.90
14210;DHT22;7188;56.070;12.698;2023-03-23T02:55:30;9.30;99.90
14210;DHT22;7188;56.070;12.698;2023-03-23T02:57:56;9.20;99.90
14210;DHT22;7188;56.070;12.698;2023-03-23T03:00:22;9.10;99.90
14210;DHT22;7188;56.070;12.698;2023-03-23T03:02:53;9.10;99.90
14210;DHT22;7188;56.070;12.698;2023-03-23T03:05:55;9.10;99.90
14210;DHT22;7188;56.070;12.698;2023-03-23T03:11:11;9.20;99.90
14210;DHT22;7188;56.070;12.698;2023-03-23T03:16:31;9.20;99.90
14210;DHT22;7188;56.070;12.698;2023-03-23T03:19:10;9.10;99.90
14210;DHT22;7188;56.070;12.698;2023-03-23T03:21:41;9.00;99.90
14210;DHT22;7188;56.070;12.698;2023-03-23T03:24:10;8.90;99.90
14210;DHT22;7188;56.070;12.698;2023-03-23T03:26:39;9.10;99.90
14210;DHT22;7188;56.070;12.698;2023-03-23T03:29:06;9.10;99.90
14210;DHT22;7188;56.070;12.698;2023-03-23T03:31:36;9.00;99.90
14210;DHT22;7188;56.070;12.698;2023-03-23T03:34:03;8.90;99.90
14210;DHT22;7188;56.070;12.698;2023-03-23T03:36:31;8.90;99.90
14210;DHT22;7188;56.070;12.698;2023-03-23T03:39:02;8.80;99.90
14210;DHT22;7188;56.070;12.698;2023-03-23T03:42:04;8.90;99.90
14210;DHT22;7188;56.070;12.698;2023-03-23T03:44:30;8.90;99.90
14210;DHT22;7188;56.070;12.698;2023-03-23T03:46:56;8.90;99.90
14210;DHT22;7188;56.070;12.698;2023-03-23T03:49:22;9.00;99.90
14210;DHT22;7188;56.070;12.698;2023-03-23T03:51:48;9.00;99.90
14210;DHT22;7188;56.070;12.698;2023-03-23T03:54:14;9.10;99.90
14210;DHT22;7188;56.070;12.698;2023-03-23T03:56:41;9.10;99.90
14210;DHT22;7188;56.070;12.698;2023-03-23T03:59:07;9.20;99.90
14210;DHT22;7188;56.070;12.698;2023-03-23T04:01:34;9.20;99.90
14210;DHT22;7188;56.070;12.698;2023-03-23T04:03:59;9.20;99.90
14210;DHT22;7188;56.070;12.698;2023-03-23T04:06:37;9.20;99.90
14210;DHT22;7188;56.070;12.698;2023-03-23T04:09:05;9.20;99.90
14210;DHT22;7188;56.070;12.698;2023-03-23T04:11:33;9.30;99.90
14210;DHT22;7188;56.070;12.698;2023-03-23T04:13:59;9.20;99.90
14210;DHT22;7188;56.070;12.698;2023-03-23T04:16:25;9.30;99.90
14210;DHT22;7188;56.070;12.698;2023-03-23T04:18:51;9.20;99.90
14210;DHT22;7188;56.070;12.698;2023-03-23T04:21:17;9.20;99.90
14210;DHT22;7188;56.070;12.698;2023-03-23T04:23:43;9.30;99.90
14210;DHT22;7188;56.070;12.698;2023-03-23T04:26:08;9.30;99.90
14210;DHT22;7188;56.070;12.698;2023-03-23T04:28:38;9.30;99.90
14210;DHT22;7188;56.070;12.698;2023-03-23T04:31:04;9.30;99.90
14210;DHT22;7188;56.070;12.698;2023-03-23T04:33:30;9.30;99.90
14210;DHT22;7188;56.070;12.698;2023-03-23T04:35:59;9.30;99.90
14210;DHT22;7188;56.070;12.698;2023-03-23T04:38:27;9.30;99.90
14210;DHT22;7188;56.070;12.698;2023-03-23T04:40:53;9.30;99.90
14210;DHT22;7188;56.070;12.698;2023-03-23T04:43:21;9.40;99.90
14210;DHT22;7188;56.070;12.698;2023-03-23T04:45:53;9.40;99.90
14210;DHT22;7188;56.070;12.698;2023-03-23T04:48:33;9.30;99.90
14210;DHT22;7188;56.070;12.698;2023-03-23T04:51:01;9.30;99.90
14210;DHT22;7188;56.070;12.698;2023-03-23T04:53:29;9.30;99.90
14210;DHT22;7188;56.070;12.698;2023-03-23T04:55:55;9.20;99.90
14210;DHT22;7188;56.070;12.698;2023-03-23T04:58:21;9.30;99.90
14210;DHT22;7188;56.070;12.698;2023-03-23T05:00:48;9.40;99.90
14210;DHT22;7188;56.070;12.698;2023-03-23T05:03:17;9.40;99.90
14210;DHT22;7188;56.070;12.698;2023-03-23T05:05:44;9.40;99.90
14210;DHT22;7188;56.070;12.698;2023-03-23T05:08:13;9.40;99.90
14210;DHT22;7188;56.070;12.698;2023-03-23T05:10:39;9.40;99.90
14210;DHT22;7188;56.070;12.698;2023-03-23T05:13:04;9.40;99.90
14210;DHT22;7188;56.070;12.698;2023-03-23T05:15:30;9.40;99.90
14210;DHT22;7188;56.070;12.698;2023-03-23T05:17:56;9.30;99.90
14210;DHT22;7188;56.070;12.698;2023-03-23T05:20:22;9.30;99.90
14210;DHT22;7188;56.070;12.698;2023-03-23T05:22:49;9.30;99.90
14210;DHT22;7188;56.070;12.698;2023-03-23T05:25:16;9.30;99.90
14210;DHT22;7188;56.070;12.698;2023-03-23T05:27:46;9.30;99.90
14210;DHT22;7188;56.070;12.698;2023-03-23T05:30:14;9.30;99.90
14210;DHT22;7188;56.070;12.698;2023-03-23T05:32:42;9.30;99.90
14210;DHT22;7188;56.070;12.698;2023-03-23T05:35:11;9.30;99.90
14210;DHT22;7188;56.070;12.698;2023-03-23T05:37:37;9.20;99.90
14210;DHT22;7188;56.070;12.698;2023-03-23T05:40:02;9.10;99.90
14210;DHT22;7188;56.070;12.698;2023-03-23T05:42:32;9.10;99.90
14210;DHT22;7188;56.070;12.698;2023-03-23T05:44:58;9.10;99.90
14210;DHT22;7188;56.070;12.698;2023-03-23T05:47:24;9.00;99.90
14210;DHT22;7188;56.070;12.698;2023-03-23T05:49:51;9.00;99.90
14210;DHT22;7188;56.070;12.698;2023-03-23T05:52:17;9.10;99.90
14210;DHT22;7188;56.070;12.698;2023-03-23T05:54:43;9.00;99.90
14210;DHT22;7188;56.070;12.698;2023-03-23T05:57:16;9.00;99.90
14210;DHT22;7188;56.070;12.698;2023-03-23T05:59:43;9.00;99.90
14210;DHT22;7188;56.070;12.698;2023-03-23T06:02:08;9.00;99.90
14210;DHT22;7188;56.070;12.698;2023-03-23T06:04:35;9.10;99.90
14210;DHT22;7188;56.070;12.698;2023-03-23T06:07:03;9.10;99.90
14210;DHT22;7188;56.070;12.698;2023-03-23T06:09:29;9.10;99.90
14210;DHT22;7188;56.070;12.698;2023-03-23T06:11:55;9.10;99.90
14210;DHT22;7188;56.070;12.698;2023-03-23T06:14:21;9.00;99.90
14210;DHT22;7188;56.070;12.698;2023-03-23T06:16:47;9.00;99.90
14210;DHT22;7188;56.070;12.698;2023-03-23T06:19:13;8.90;99.90
14210;DHT22;7188;56.070;12.698;2023-03-23T06:21:41;8.90;99.90
14210;DHT22;7188;56.070;12.698;2023-03-23T06:24:07;8.90;99.90
14210;DHT22;7188;56.070;12.698;2023-03-23T06:26:38;8.90;99.90
14210;DHT22;7188;56.070;12.698;2023-03-23T06:29:05;8.90;99.90
14210;DHT22;7188;56.070;12.698;2023-03-23T06:31:41;8.90;99.90
14210;DHT22;7188;56.070;12.698;2023-03-23T06:34:08;8.90;99.90
14210;DHT22;7188;56.070;12.698;2023-03-23T06:36:35;8.90;99.90
14210;DHT22;7188;56.070;12.698;2023-03-23T06:39:00;8.90;99.90
14210;DHT22;7188;56.070;12.698;2023-03-23T06:41:26;8.90;99.90
14210;DHT22;7188;56.070;12.698;2023-03-23T06:43:52;8.90;99.90
14210;DHT22;7188;56.070;12.698;2023-03-23T06:46:19;9.00;99.90
14210;DHT22;7188;56.070;12.698;2023-03-23T06:48:45;9.00;99.90
14210;DHT22;7188;56.070;12.698;2023-03-23T06:51:11;9.00;99.90
14210;DHT22;7188;56.070;12.698;2023-03-23T06:53:36;9.00;99.90
14210;DHT22;7188;56.070;12.698;2023-03-23T06:56:02;9.00;99.90
14210;DHT22;7188;56.070;12.698;2023-03-23T06:58:28;9.00;99.90
14210;DHT22;7188;56.070;12.698;2023-03-23T07:00:55;9.00;99.90
14210;DHT22;7188;56.070;12.698;2023-03-23T07:03:24;9.00;99.90
14210;DHT22;7188;56.070;12.698;2023-03-23T07:05:51;9.00;99.90
14210;DHT22;7188;56.070;12.698;2023-03-23T07:08:17;9.00;99.90
14210;DHT22;7188;56.070;12.698;2023-03-23T07:10:43;9.00;99.90
14210;DHT22;7188;56.070;12.698;2023-03-23T07:13:09;9.10;99.90
14210;DHT22;7188;56.070;12.698;2023-03-23T07:15:34;9.00;99.90
14210;DHT22;7188;56.070;12.698;2023-03-23T07:18:01;9.10;99.90
14210;DHT22;7188;56.070;12.698;2023-03-23T07:20:26;9.10;99.90
14210;DHT22;7188;56.070;12.698;2023-03-23T07:22:53;9.20;99.90
14210;DHT22;7188;56.070;12.698;2023-03-23T07:25:19;9.20;99.90
14210;DHT22;7188;56.070;12.698;2023-03-23T07:27:46;9.10;99.90
14210;DHT22;7188;56.070;12.698;2023-03-23T07:30:12;9.20;99.90
14210;DHT22;7188;56.070;12.698;2023-03-23T07:32:40;9.20;99.90
14210;DHT22;7188;56.070;12.698;2023-03-23T07:35:07;9.20;99.90
14210;DHT22;7188;56.070;12.698;2023-03-23T07:37:33;9.30;99.90
14210;DHT22;7188;56.070;12.698;2023-03-23T07:39:59;9.30;99.90
14210;DHT22;7188;56.070;12.698;2023-03-23T07:42:25;9.30;99.90
14210;DHT22;7188;56.070;12.698;2023-03-23T07:44:50;9.30;99.90
14210;DHT22;7188;56.070;12.698;2023-03-23T07:47:16;9.50;99.90
14210;DHT22;7188;56.070;12.698;2023-03-23T07:49:43;9.50;99.90
14210;DHT22;7188;56.070;12.698;2023-03-23T07:52:08;9.50;99.90
14210;DHT22;7188;56.070;12.698;2023-03-23T07:54:36;9.50;99.90
14210;DHT22;7188;56.070;12.698;2023-03-23T07:57:02;9.60;99.90
14210;DHT22;7188;56.070;12.698;2023-03-23T07:59:28;9.50;99.90
14210;DHT22;7188;56.070;12.698;2023-03-23T08:01:53;9.50;99.90
14210;DHT22;7188;56.070;12.698;2023-03-23T08:04:19;9.60;99.90
14210;DHT22;7188;56.070;12.698;2023-03-23T08:06:44;9.60;99.90
14210;DHT22;7188;56.070;12.698;2023-03-23T08:09:10;9.70;99.90
14210;DHT22;7188;56.070;12.698;2023-03-23T08:11:37;9.70;99.90
14210;DHT22;7188;56.070;12.698;2023-03-23T08:14:03;9.80;99.90
14210;DHT22;7188;56.070;12.698;2023-03-23T08:16:29;9.80;99.90
14210;DHT22;7188;56.070;12.698;2023-03-23T08:18:55;9.80;99.90
14210;DHT22;7188;56.070;12.698;2023-03-23T08:21:22;9.70;99.90
14210;DHT22;7188;56.070;12.698;2023-03-23T08:23:48;9.60;99.90
14210;DHT22;7188;56.070;12.698;2023-03-23T08:26:16;9.60;99.90
14210;DHT22;7188;56.070;12.698;2023-03-23T08:28:42;9.50;99.90
14210;DHT22;7188;56.070;12.698;2023-03-23T08:31:13;9.50;99.90
14210;DHT22;7188;56.070;12.698;2023-03-23T08:33:40;9.50;99.90
14210;DHT22;7188;56.070;12.698;2023-03-23T08:36:07;9.50;99.90
14210;DHT22;7188;56.070;12.698;2023-03-23T08:38:34;9.50;99.90
14210;DHT22;7188;56.070;12.698;2023-03-23T08:41:05;9.50;99.90
14210;DHT22;7188;56.070;12.698;2023-03-23T08:43:31;9.50;99.90
14210;DHT22;7188;56.070;12.698;2023-03-23T08:45:58;9.50;71.90
14210;DHT22;7188;56.070;12.698;2023-03-23T08:48:24;9.50;46.40
14210;DHT22;7188;56.070;12.698;2023-03-23T08:50:50;9.50;12.80
14210;DHT22;7188;56.070;12.698;2023-03-23T08:53:18;9.60;25.20
14210;DHT22;7188;56.070;12.698;2023-03-23T08:55:43;9.60;49.20
14210;DHT22;7188;56.070;12.698;2023-03-23T08:58:09;9.70;14.30
14210;DHT22;7188;56.070;12.698;2023-03-23T09:00:35;9.80;9.70
14210;DHT22;7188;56.070;12.698;2023-03-23T09:03:01;9.80;1.00
14210;DHT22;7188;56.070;12.698;2023-03-23T09:05:28;9.90;1.00
14210;DHT22;7188;56.070;12.698;2023-03-23T09:07:56;10.00;6.10
14210;DHT22;7188;56.070;12.698;2023-03-23T09:10:25;10.00;1.00
14210;DHT22;7188;56.070;12.698;2023-03-23T09:12:53;10.10;1.00
14210;DHT22;7188;56.070;12.698;2023-03-23T09:15:19;10.00;1.00
14210;DHT22;7188;56.070;12.698;2023-03-23T09:17:47;10.00;1.00
14210;DHT22;7188;56.070;12.698;2023-03-23T09:20:16;9.90;1.00
14210;DHT22;7188;56.070;12.698;2023-03-23T09:22:47;9.80;1.00
14210;DHT22;7188;56.070;12.698;2023-03-23T09:25:15;9.70;1.00
14210;DHT22;7188;56.070;12.698;2023-03-23T09:27:42;9.60;1.00
14210;DHT22;7188;56.070;12.698;2023-03-23T09:30:10;9.60;1.00
14210;DHT22;7188;56.070;12.698;2023-03-23T09:32:37;9.60;1.00
14210;DHT22;7188;56.070;12.698;2023-03-23T09:35:05;9.50;1.00
14210;DHT22;7188;56.070;12.698;2023-03-23T09:37:38;9.60;63.70
14210;DHT22;7188;56.070;12.698;2023-03-23T09:40:05;9.70;99.90
14210;DHT22;7188;56.070;12.698;2023-03-23T09:43:53;9.80;99.90
14210;DHT22;7188;56.070;12.698;2023-03-23T09:46:09;9.90;99.90
14210;DHT22;7188;56.070;12.698;2023-03-23T09:56:37;10.00;99.90
14210;DHT22;7188;56.070;12.698;2023-03-23T09:59:23;9.90;99.90
14210;DHT22;7188;56.070;12.698;2023-03-23T10:01:52;9.70;99.90
14210;DHT22;7188;56.070;12.698;2023-03-23T10:04:32;9.70;99.90
14210;DHT22;7188;56.070;12.698;2023-03-23T10:07:20;9.60;99.90
14210;DHT22;7188;56.070;12.698;2023-03-23T10:09:51;9.60;99.90
14210;DHT22;7188;56.070;12.698;2023-03-23T10:15:10;9.60;99.90
14210;DHT22;7188;56.070;12.698;2023-03-23T10:17:54;9.60;99.90
14210;DHT22;7188;56.070;12.698;2023-03-23T10:20:56;9.50;99.90
14210;DHT22;7188;56.070;12.698;2023-03-23T10:28:37;9.60;99.90
14210;DHT22;7188;56.070;12.698;2023-03-23T10:31:07;9.50;99.90
14210;DHT22;7188;56.070;12.698;2023-03-23T10:33:46;9.40;99.90
14210;DHT22;7188;56.070;12.698;2023-03-23T10:36:26;9.60;99.90
14210;DHT22;7188;56.070;12.698;2023-03-23T10:41:29;9.40;99.90
14210;DHT22;7188;56.070;12.698;2023-03-23T10:44:20;9.40;99.90
14210;DHT22;7188;56.070;12.698;2023-03-23T10:46:49;9.40;99.90
14210;DHT22;7188;56.070;12.698;2023-03-23T10:49:28;9.40;99.90
14210;DHT22;7188;56.070;12.698;2023-03-23T10:52:26;9.30;99.90
14210;DHT22;7188;56.070;12.698;2023-03-23T10:54:57;9.40;99.90
14210;DHT22;7188;56.070;12.698;2023-03-23T10:57:27;9.40;99.90
14210;DHT22;7188;56.070;12.698;2023-03-23T11:00:02;9.40;99.90
14210;DHT22;7188;56.070;12.698;2023-03-23T11:02:32;9.50;99.90
14210;DHT22;7188;56.070;12.698;2023-03-23T11:05:20;9.60;99.90
14210;DHT22;7188;56.070;12.698;2023-03-23T11:07:54;9.80;99.90
14210;DHT22;7188;56.070;12.698;2023-03-23T11:12:51;9.90;99.90
14210;DHT22;7188;56.070;12.698;2023-03-23T11:18:52;10.10;99.90
14210;DHT22;7188;56.070;12.698;2023-03-23T11:21:00;10.20;99.90
14210;DHT22;7188;56.070;12.698;2023-03-23T11:23:35;10.30;99.90
14210;DHT22;7188;56.070;12.698;2023-03-23T11:28:56;10.70;1.00
14210;DHT22;7188;56.070;12.698;2023-03-23T11:31:39;10.90;1.00
14210;DHT22;7188;56.070;12.698;2023-03-23T11:34:30;11.00;1.00
14210;DHT22;7188;56.070;12.698;2023-03-23T11:37:05;11.20;1.00
14210;DHT22;7188;56.070;12.698;2023-03-23T11:39:34;11.50;1.00
14210;DHT22;7188;56.070;12.698;2023-03-23T11:42:11;11.50;99.90
14210;DHT22;7188;56.070;12.698;2023-03-23T11:44:42;11.30;1.00
14210;DHT22;7188;56.070;12.698;2023-03-23T11:47:32;11.20;1.00
14210;DHT22;7188;56.070;12.698;2023-03-23T11:52:47;11.10;1.00
14210;DHT22;7188;56.070;12.698;2023-03-23T11:55:23;11.00;1.00
14210;DHT22;7188;56.070;12.698;2023-03-23T11:57:51;11.10;1.00
14210;DHT22;7188;56.070;12.698;2023-03-23T12:00:22;11.00;99.90
14210;DHT22;7188;56.070;12.698;2023-03-23T12:19:43;11.70;99.90
14210;DHT22;7188;56.070;12.698;2023-03-23T12:22:22;11.80;99.90
14210;DHT22;7188;56.070;12.698;2023-03-23T12:41:29;11.30;1.00
14210;DHT22;7188;56.070;12.698;2023-03-23T12:44:03;11.40;1.00
14210;DHT22;7188;56.070;12.698;2023-03-23T12:49:50;11.40;90.50
14210;DHT22;7188;56.070;12.698;2023-03-23T12:52:28;11.50;50.20
14210;DHT22;7188;56.070;12.698;2023-03-23T12:55:09;11.40;1.00
14210;DHT22;7188;56.070;12.698;2023-03-23T12:57:46;11.60;1.00
14210;DHT22;7188;56.070;12.698;2023-03-23T13:00:28;11.80;1.00
14210;DHT22;7188;56.070;12.698;2023-03-23T13:03:17;12.00;1.00
14210;DHT22;7188;56.070;12.698;2023-03-23T13:06:06;12.20;99.90
14210;DHT22;7188;56.070;12.698;2023-03-23T13:08:40;12.30;99.90
14210;DHT22;7188;56.070;12.698;2023-03-23T13:11:18;12.30;1.00
14210;DHT22;7188;56.070;12.698;2023-03-23T13:13:48;12.30;1.00
14210;DHT22;7188;56.070;12.698;2023-03-23T13:19:16;12.30;99.90
14210;DHT22;7188;56.070;12.698;2023-03-23T13:24:33;12.20;99.90
14210;DHT22;7188;56.070;12.698;2023-03-23T13:27:00;12.20;1.00
14210;DHT22;7188;56.070;12.698;2023-03-23T13:29:27;11.80;1.00
14210;DHT22;7188;56.070;12.698;2023-03-23T13:32:17;11.80;1.00
14210;DHT22;7188;56.070;12.698;2023-03-23T13:34:48;11.90;1.00
14210;DHT22;7188;56.070;12.698;2023-03-23T13:37:24;12.00;1.00
14210;DHT22;7188;56.070;12.698;2023-03-23T13:42:36;12.10;99.90
14210;DHT22;7188;56.070;12.698;2023-03-23T13:53:30;12.30;99.90
14210;DHT22;7188;56.070;12.698;2023-03-23T13:56:13;12.40;99.90
14210;DHT22;7188;56.070;12.698;2023-03-23T13:59:05;12.30;89.00
14210;DHT22;7188;56.070;12.698;2023-03-23T14:01:37;12.30;4.60
14210;DHT22;7188;56.070;12.698;2023-03-23T14:04:16;12.30;1.00
14210;DHT22;7188;56.070;12.698;2023-03-23T14:06:44;12.30;1.00
14210;DHT22;7188;56.070;12.698;2023-03-23T14:09:18;12.40;1.00
14210;DHT22;7188;56.070;12.698;2023-03-23T14:11:59;12.30;1.00
14210;DHT22;7188;56.070;12.698;2023-03-23T14:14:43;12.30;1.00
14210;DHT22;7188;56.070;12.698;2023-03-23T14:17:19;12.30;1.00
14210;DHT22;7188;56.070;12.698;2023-03-23T14:19:49;12.30;1.00
14210;DHT22;7188;56.070;12.698;2023-03-23T14:22:19;12.30;1.00
14210;DHT22;7188;56.070;12.698;2023-03-23T14:24:45;12.20;1.00
14210;DHT22;7188;56.070;12.698;2023-03-23T14:27:17;12.10;1.00
14210;DHT22;7188;56.070;12.698;2023-03-23T14:29:44;12.20;1.00
14210;DHT22;7188;56.070;12.698;2023-03-23T14:32:20;12.10;1.00
14210;DHT22;7188;56.070;12.698;2023-03-23T14:34:51;12.10;1.00
14210;DHT22;7188;56.070;12.698;2023-03-23T14:37:17;12.10;1.00
14210;DHT22;7188;56.070;12.698;2023-03-23T14:39:48;12.00;1.00
14210;DHT22;7188;56.070;12.698;2023-03-23T14:42:16;12.00;1.00
14210;DHT22;7188;56.070;12.698;2023-03-23T14:44:48;12.00;1.00
14210;DHT22;7188;56.070;12.698;2023-03-23T14:47:35;11.90;1.00
14210;DHT22;7188;56.070;12.698;2023-03-23T14:50:05;11.90;1.00
14210;DHT22;7188;56.070;12.698;2023-03-23T14:52:36;11.80;1.00
14210;DHT22;7188;56.070;12.698;2023-03-23T14:55:22;11.80;1.00
14210;DHT22;7188;56.070;12.698;2023-03-23T14:57:49;11.80;1.00
14210;DHT22;7188;56.070;12.698;2023-03-23T15:00:33;11.80;1.00
14210;DHT22;7188;56.070;12.698;2023-03-23T15:03:01;11.80;1.00
14210;DHT22;7188;56.070;12.698;2023-03-23T15:05:34;11.70;1.00
14210;DHT22;7188;56.070;12.698;2023-03-23T15:08:14;11.70;1.00
14210;DHT22;7188;56.070;12.698;2023-03-23T15:10:40;11.60;1.00
14210;DHT22;7188;56.070;12.698;2023-03-23T15:13:15;11.60;1.00
14210;DHT22;7188;56.070;12.698;2023-03-23T15:15:41;11.50;1.00
14210;DHT22;7188;56.070;12.698;2023-03-23T15:18:37;11.60;1.00
14210;DHT22;7188;56.070;12.698;2023-03-23T15:21:34;11.60;1.00
14210;DHT22;7188;56.070;12.698;2023-03-23T15:24:01;11.60;1.00
14210;DHT22;7188;56.070;12.698;2023-03-23T15:26:41;11.60;1.00
14210;DHT22;7188;56.070;12.698;2023-03-23T15:31:38;11.60;1.00
14210;DHT22;7188;56.070;12.698;2023-03-23T15:34:05;11.60;1.00
14210;DHT22;7188;56.070;12.698;2023-03-23T15:36:34;11.50;1.00
14210;DHT22;7188;56.070;12.698;2023-03-23T15:39:01;11.50;1.00
14210;DHT22;7188;56.070;12.698;2023-03-23T15:41:30;11.50;1.00
14210;DHT22;7188;56.070;12.698;2023-03-23T15:44:18;11.50;1.00
14210;DHT22;7188;56.070;12.698;2023-03-23T15:47:01;11.40;1.00
14210;DHT22;7188;56.070;12.698;2023-03-23T15:49:27;11.40;1.00
14210;DHT22;7188;56.070;12.698;2023-03-23T15:51:53;11.50;1.00
14210;DHT22;7188;56.070;12.698;2023-03-23T15:54:19;11.50;1.00
14210;DHT22;7188;56.070;12.698;2023-03-23T15:56:44;11.50;1.00
14210;DHT22;7188;56.070;12.698;2023-03-23T15:59:11;11.50;1.00
14210;DHT22;7188;56.070;12.698;2023-03-23T16:01:39;11.40;1.00
14210;DHT22;7188;56.070;12.698;2023-03-23T16:04:08;11.40;1.00
14210;DHT22;7188;56.070;12.698;2023-03-23T16:06:35;11.40;1.00
14210;DHT22;7188;56.070;12.698;2023-03-23T16:09:03;11.40;1.00
14210;DHT22;7188;56.070;12.698;2023-03-23T16:11:30;11.40;1.00
14210;DHT22;7188;56.070;12.698;2023-03-23T16:13:57;11.30;1.00
14210;DHT22;7188;56.070;12.698;2023-03-23T16:16:26;11.30;1.00
14210;DHT22;7188;56.070;12.698;2023-03-23T16:18:53;11.30;1.00
14210;DHT22;7188;56.070;12.698;2023-03-23T16:21:20;11.30;1.00
14210;DHT22;7188;56.070;12.698;2023-03-23T16:23:46;11.20;1.00
14210;DHT22;7188;56.070;12.698;2023-03-23T16:26:13;11.30;1.00
14210;DHT22;7188;56.070;12.698;2023-03-23T16:28:40;11.20;1.00
14210;DHT22;7188;56.070;12.698;2023-03-23T16:31:06;11.20;1.00
14210;DHT22;7188;56.070;12.698;2023-03-23T16:33:32;11.10;1.00
14210;DHT22;7188;56.070;12.698;2023-03-23T16:35:58;11.10;1.00
14210;DHT22;7188;56.070;12.698;2023-03-23T16:38:24;11.10;1.00
14210;DHT22;7188;56.070;12.698;2023-03-23T16:40:50;11.10;1.00
14210;DHT22;7188;56.070;12.698;2023-03-23T16:43:16;11.00;1.00
14210;DHT22;7188;56.070;12.698;2023-03-23T16:45:44;11.00;1.00
14210;DHT22;7188;56.070;12.698;2023-03-23T16:48:12;11.00;1.00
14210;DHT22;7188;56.070;12.698;2023-03-23T16:50:38;11.00;1.00
14210;DHT22;7188;56.070;12.698;2023-03-23T16:53:05;10.90;1.00
14210;DHT22;7188;56.070;12.698;2023-03-23T16:55:32;10.90;1.00
14210;DHT22;7188;56.070;12.698;2023-03-23T16:57:58;10.90;1.00
14210;DHT22;7188;56.070;12.698;2023-03-23T17:00:25;10.80;1.00
14210;DHT22;7188;56.070;12.698;2023-03-23T17:02:52;10.70;1.00
14210;DHT22;7188;56.070;12.698;2023-03-23T17:05:26;10.70;1.00
14210;DHT22;7188;56.070;12.698;2023-03-23T17:07:53;10.70;1.00
14210;DHT22;7188;56.070;12.698;2023-03-23T17:10:21;10.60;1.00
14210;DHT22;7188;56.070;12.698;2023-03-23T17:12:47;10.60;1.00
14210;DHT22;7188;56.070;12.698;2023-03-23T17:15:13;10.60;1.00
14210;DHT22;7188;56.070;12.698;2023-03-23T17:17:38;10.50;1.00
14210;DHT22;7188;56.070;12.698;2023-03-23T17:20:05;10.50;1.00
14210;DHT22;7188;56.070;12.698;2023-03-23T17:22:32;10.50;1.00
14210;DHT22;7188;56.070;12.698;2023-03-23T17:24:58;10.40;1.00
14210;DHT22;7188;56.070;12.698;2023-03-23T17:27:24;10.30;1.00
14210;DHT22;7188;56.070;12.698;2023-03-23T17:29:50;10.20;1.00
14210;DHT22;7188;56.070;12.698;2023-03-23T17:32:16;10.20;1.00
14210;DHT22;7188;56.070;12.698;2023-03-23T17:34:41;10.20;1.00
14210;DHT22;7188;56.070;12.698;2023-03-23T17:37:07;10.20;1.00
14210;DHT22;7188;56.070;12.698;2023-03-23T17:39:34;10.10;1.00
14210;DHT22;7188;56.070;12.698;2023-03-23T17:42:00;10.10;1.00
14210;DHT22;7188;56.070;12.698;2023-03-23T17:44:26;10.00;1.00
14210;DHT22;7188;56.070;12.698;2023-03-23T17:46:52;10.00;1.00
14210;DHT22;7188;56.070;12.698;2023-03-23T17:49:21;10.00;1.00
14210;DHT22;7188;56.070;12.698;2023-03-23T17:51:47;9.90;1.00